createdAt,value
2018-07-26T00:00:43.792Z,46.36
2018-07-26T00:03:14.606Z,46.54
2018-07-26T00:05:45.466Z,46.83
2018-07-26T00:08:16.498Z,46.72
2018-07-26T00:10:47.448Z,47.51
2018-07-26T00:13:18.495Z,47.36
2018-07-26T00:15:49.469Z,47.28
2018-07-26T00:18:20.511Z,47.84
2018-07-26T00:20:51.473Z,47.64
2018-07-26T00:23:22.537Z,48.01
2018-07-26T00:25:53.468Z,46.96
2018-07-26T00:28:24.477Z,47.18
2018-07-26T00:30:55.466Z,47.76
2018-07-26T00:33:26.467Z,47.39
2018-07-26T00:35:57.650Z,48.28
2018-07-26T00:38:28.537Z,48.57
2018-07-26T00:40:59.478Z,49.47
2018-07-26T00:43:30.493Z,49.29
2018-07-26T00:46:01.499Z,49.58
2018-07-26T00:48:32.441Z,49.36
2018-07-26T00:51:03.457Z,50.46
2018-07-26T00:53:34.463Z,49.82
2018-07-26T00:56:05.468Z,50.45
2018-07-26T00:58:36.481Z,50.50
2018-07-26T01:01:07.437Z,51.42
2018-07-26T01:03:38.482Z,50.74
2018-07-26T01:06:09.694Z,50.71
2018-07-26T01:08:40.555Z,50.02
2018-07-26T01:11:11.469Z,50.07
2018-07-26T01:13:42.452Z,49.60
2018-07-26T01:16:13.478Z,50.33
2018-07-26T01:18:44.481Z,50.04
2018-07-26T01:21:15.458Z,50.41
2018-07-26T01:23:46.463Z,50.87
2018-07-26T01:26:17.573Z,50.47
2018-07-26T01:28:48.468Z,49.58
2018-07-26T01:31:19.490Z,50.58
2018-07-26T01:33:50.462Z,49.28
2018-07-26T01:36:21.415Z,49.41
2018-07-26T01:38:52.490Z,49.33
2018-07-26T01:41:23.525Z,49.04
2018-07-26T01:44:16.471Z,48.66
2018-07-26T01:46:47.475Z,48.70
2018-07-26T01:49:18.801Z,48.78
2018-07-26T01:51:49.561Z,49.09
2018-07-26T01:54:20.488Z,49.03
2018-07-26T01:56:51.444Z,49.77
2018-07-26T01:59:22.485Z,49.75
2018-07-26T02:01:53.469Z,49.45
2018-07-26T02:04:24.486Z,48.60
2018-07-26T02:06:55.477Z,48.65
2018-07-26T02:09:26.470Z,48.71
2018-07-26T02:11:57.481Z,50.12
2018-07-26T02:14:34.622Z,49.67
2018-07-26T02:17:05.529Z,49.22
2018-07-26T02:19:36.508Z,49.63
2018-07-26T02:22:07.472Z,48.81
2018-07-26T02:24:38.461Z,48.90
2018-07-26T02:27:09.472Z,48.69
2018-07-26T02:29:40.488Z,49.74
2018-07-26T02:32:11.523Z,49.71
2018-07-26T02:34:42.499Z,50.36
2018-07-26T02:37:13.497Z,49.29
2018-07-26T02:39:44.491Z,49.79
2018-07-26T02:42:15.485Z,50.16
2018-07-26T02:44:46.480Z,49.60
2018-07-26T02:47:17.461Z,50.22
2018-07-26T02:49:48.486Z,49.56
2018-07-26T02:52:19.481Z,50.03
2018-07-26T02:54:50.472Z,49.20
2018-07-26T02:57:21.722Z,49.90
2018-07-26T02:59:52.567Z,49.46
2018-07-26T03:02:23.485Z,49.68
2018-07-26T03:04:54.704Z,49.94
2018-07-26T03:07:25.596Z,49.94
2018-07-26T03:09:56.488Z,50.36
2018-07-26T03:12:27.554Z,49.53
2018-07-26T03:14:58.476Z,50.62
2018-07-26T03:17:29.494Z,50.64
2018-07-26T03:20:00.457Z,50.15
2018-07-26T03:22:31.550Z,50.64
2018-07-26T03:25:02.511Z,50.88
2018-07-26T03:27:33.495Z,51.02
2018-07-26T03:30:04.525Z,50.78
2018-07-26T03:32:35.456Z,49.94
2018-07-26T03:35:06.472Z,51.07
2018-07-26T03:37:37.453Z,50.65
2018-07-26T03:40:08.681Z,51.07
2018-07-26T03:42:39.461Z,51.19
2018-07-26T03:45:10.484Z,51.27
2018-07-26T03:47:41.484Z,50.69
2018-07-26T03:50:12.470Z,51.13
2018-07-26T03:52:43.492Z,50.89
2018-07-26T03:55:14.481Z,51.80
2018-07-26T03:57:45.488Z,51.63
2018-07-26T04:00:16.488Z,50.91
2018-07-26T04:02:47.468Z,51.01
2018-07-26T04:05:18.641Z,51.04
2018-07-26T04:07:49.449Z,51.25
2018-07-26T04:10:20.441Z,51.33
2018-07-26T04:12:51.445Z,51.70
2018-07-26T04:15:22.472Z,51.24
2018-07-26T04:17:58.349Z,51.34
2018-07-26T04:20:29.417Z,52.17
2018-07-26T04:23:00.476Z,51.89
2018-07-26T04:25:32.238Z,51.82
2018-07-26T04:28:03.532Z,52.36
2018-07-26T04:30:34.477Z,52.25
2018-07-26T04:33:05.468Z,52.94
2018-07-26T04:35:36.481Z,51.84
2018-07-26T04:38:07.424Z,51.65
2018-07-26T04:40:38.460Z,52.23
2018-07-26T04:43:09.472Z,51.86
2018-07-26T04:45:40.495Z,52.86
2018-07-26T04:48:11.440Z,52.89
2018-07-26T04:50:42.444Z,52.65
2018-07-26T04:53:13.426Z,52.73
2018-07-26T04:55:44.461Z,52.47
2018-07-26T04:58:15.461Z,52.04
2018-07-26T05:00:46.479Z,52.07
2018-07-26T05:03:17.474Z,52.33
2018-07-26T05:05:48.506Z,52.65
2018-07-26T05:08:19.461Z,52.40
2018-07-26T05:10:50.557Z,52.33
2018-07-26T05:13:21.482Z,52.28
2018-07-26T05:15:52.465Z,51.77
2018-07-26T05:18:23.427Z,52.38
2018-07-26T05:20:54.517Z,51.67
2018-07-26T05:23:25.518Z,52.87
2018-07-26T05:25:56.484Z,52.10
2018-07-26T05:28:27.466Z,52.15
2018-07-26T05:30:58.496Z,52.54
2018-07-26T05:33:29.461Z,51.48
2018-07-26T05:36:00.463Z,52.27
2018-07-26T05:38:31.462Z,52.03
2018-07-26T05:41:02.478Z,51.22
2018-07-26T05:43:33.479Z,50.52
2018-07-26T05:46:04.513Z,51.94
2018-07-26T05:48:35.487Z,51.05
2018-07-26T05:51:06.490Z,49.92
2018-07-26T05:53:37.454Z,50.03
2018-07-26T05:56:08.508Z,50.38
2018-07-26T05:58:39.496Z,49.12
2018-07-26T06:01:10.520Z,49.33
2018-07-26T06:03:41.612Z,49.14
2018-07-26T06:06:12.548Z,48.53
2018-07-26T06:08:43.517Z,48.47
2018-07-26T06:11:14.765Z,48.11
2018-07-26T06:13:45.549Z,48.20
2018-07-26T06:16:16.496Z,48.46
2018-07-26T06:18:48.030Z,48.02
2018-07-26T06:21:19.285Z,48.17
2018-07-26T06:23:50.515Z,47.58
2018-07-26T06:26:21.473Z,47.26
2018-07-26T06:28:52.482Z,47.35
2018-07-26T06:31:23.510Z,47.25
2018-07-26T06:33:54.637Z,46.76
2018-07-26T06:36:25.532Z,46.06
2018-07-26T06:38:56.448Z,45.98
2018-07-26T06:41:27.514Z,46.39
2018-07-26T06:43:58.447Z,46.13
2018-07-26T06:46:29.499Z,46.48
2018-07-26T06:49:00.474Z,46.37
2018-07-26T06:51:31.472Z,46.66
2018-07-26T06:54:02.462Z,46.23
2018-07-26T06:56:33.493Z,46.34
2018-07-26T06:59:04.498Z,46.13
2018-07-26T07:01:35.469Z,46.59
2018-07-26T07:04:06.470Z,46.13
2018-07-26T07:06:37.474Z,45.66
2018-07-26T07:09:12.010Z,46.22
2018-07-26T07:11:43.509Z,45.62
2018-07-26T07:14:14.532Z,45.11
2018-07-26T07:16:45.476Z,44.61
2018-07-26T07:19:16.481Z,44.30
2018-07-26T07:21:47.452Z,44.93
2018-07-26T07:24:22.666Z,44.08
2018-07-26T07:26:54.385Z,44.37
2018-07-26T07:29:25.514Z,43.72
2018-07-26T07:31:56.478Z,43.21
2018-07-26T07:34:27.413Z,43.12
2018-07-26T07:36:59.297Z,44.14
2018-07-26T07:39:30.350Z,43.40
2018-07-26T07:42:01.353Z,43.14
2018-07-26T07:44:32.415Z,42.35
2018-07-26T07:47:03.519Z,42.16
2018-07-26T07:49:34.474Z,41.67
2018-07-26T07:52:05.289Z,40.39
2018-07-26T07:54:36.342Z,40.60
2018-07-26T07:57:07.620Z,40.43
2018-07-26T07:59:38.578Z,40.88
2018-07-26T08:02:09.476Z,39.76
2018-07-26T08:04:40.458Z,40.79
2018-07-26T08:07:11.457Z,39.92
2018-07-26T08:09:42.454Z,39.13
2018-07-26T08:12:13.476Z,37.69
2018-07-26T08:14:44.760Z,37.79
2018-07-26T08:17:15.552Z,38.08
2018-07-26T08:19:46.448Z,37.93
2018-07-26T08:22:17.449Z,37.50
2018-07-26T08:24:49.440Z,35.71
2018-07-26T08:27:20.510Z,35.64
2018-07-26T08:29:51.557Z,36.70
2018-07-26T08:32:22.488Z,36.01
2018-07-26T08:34:53.641Z,36.31
2018-07-26T08:37:24.497Z,34.69
2018-07-26T08:39:55.469Z,33.61
2018-07-26T08:42:26.497Z,33.94
2018-07-26T08:44:57.441Z,32.70
2018-07-26T08:47:28.508Z,33.13
2018-07-26T08:49:59.480Z,33.65
2018-07-26T08:52:30.444Z,31.89
2018-07-26T08:55:01.417Z,31.93
2018-07-26T08:57:32.471Z,31.98
2018-07-26T09:00:03.450Z,30.44
2018-07-26T09:02:34.510Z,29.88
2018-07-26T09:05:05.735Z,29.75
2018-07-26T09:07:36.608Z,29.73
2018-07-26T09:10:07.484Z,28.64
2018-07-26T09:12:38.469Z,27.28
2018-07-26T09:15:09.417Z,27.87
2018-07-26T09:17:40.478Z,28.38
2018-07-26T09:20:11.498Z,26.98
2018-07-26T09:22:42.514Z,26.37
2018-07-26T09:25:13.503Z,27.33
2018-07-26T09:27:44.475Z,28.34
2018-07-26T09:30:15.465Z,26.56
2018-07-26T09:32:46.486Z,26.66
2018-07-26T09:35:17.458Z,26.73
2018-07-26T09:37:48.502Z,27.36
2018-07-26T09:40:19.492Z,26.39
2018-07-26T09:42:50.501Z,25.36
2018-07-26T09:45:21.518Z,25.21
2018-07-26T09:47:52.535Z,25.24
2018-07-26T09:50:23.493Z,25.42
2018-07-26T09:52:54.467Z,24.17
2018-07-26T09:55:25.474Z,25.93
2018-07-26T09:57:56.627Z,23.91
2018-07-26T10:00:32.637Z,24.05
2018-07-26T10:03:03.892Z,24.52
2018-07-26T10:05:34.679Z,24.97
2018-07-26T10:08:05.601Z,23.95
2018-07-26T10:10:36.465Z,24.29
2018-07-26T10:13:07.465Z,23.28
2018-07-26T10:15:38.453Z,23.31
2018-07-26T10:18:09.441Z,23.25
2018-07-26T10:20:40.481Z,22.92
2018-07-26T10:23:11.494Z,22.65
2018-07-26T10:25:42.485Z,23.99
2018-07-26T10:28:13.541Z,24.84
2018-07-26T10:30:44.531Z,24.75
2018-07-26T10:33:15.464Z,24.53
2018-07-26T10:35:46.457Z,24.27
2018-07-26T10:38:17.464Z,23.93
2018-07-26T10:40:48.518Z,23.92
2018-07-26T10:43:19.512Z,23.58
2018-07-26T10:45:50.478Z,23.14
2018-07-26T10:48:21.505Z,23.44
2018-07-26T10:50:52.497Z,23.91
2018-07-26T10:53:23.450Z,22.74
2018-07-26T10:55:54.468Z,23.07
2018-07-26T10:58:25.503Z,22.46
2018-07-26T11:00:56.471Z,23.50
2018-07-26T11:03:27.538Z,22.46
2018-07-26T11:05:58.466Z,22.20
2018-07-26T11:08:29.489Z,22.35
2018-07-26T11:11:00.530Z,22.46
2018-07-26T11:13:31.465Z,23.53
2018-07-26T11:16:02.497Z,23.51
2018-07-26T11:18:33.448Z,23.05
2018-07-26T11:21:04.460Z,22.13
2018-07-26T11:23:35.457Z,22.81
2018-07-26T11:26:06.488Z,22.47
2018-07-26T11:28:37.485Z,22.01
2018-07-26T11:31:08.587Z,21.35
2018-07-26T11:33:39.476Z,22.00
2018-07-26T11:36:10.401Z,22.54
2018-07-26T11:38:41.406Z,21.45
2018-07-26T11:41:12.433Z,21.30
2018-07-26T11:43:43.517Z,21.17
2018-07-26T11:46:14.463Z,21.54
2018-07-26T11:48:45.443Z,21.55
2018-07-26T11:51:16.467Z,21.32
2018-07-26T11:53:47.525Z,20.81
2018-07-26T11:56:18.843Z,20.13
2018-07-26T11:58:49.286Z,19.97
2018-07-26T12:01:20.373Z,20.30
2018-07-26T12:03:51.407Z,21.32
2018-07-26T12:06:22.422Z,21.54
2018-07-26T12:08:53.541Z,21.23
2018-07-26T12:11:24.475Z,21.84
2018-07-26T12:13:55.485Z,20.56
2018-07-26T12:16:26.471Z,20.46
2018-07-26T12:18:57.823Z,20.32
2018-07-26T12:21:28.280Z,20.28
2018-07-26T12:23:59.369Z,20.83
2018-07-26T12:26:30.464Z,19.44
2018-07-26T12:29:01.494Z,18.74
2018-07-26T12:31:32.479Z,19.32
2018-07-26T12:34:03.458Z,20.10
2018-07-26T12:36:34.466Z,18.87
2018-07-26T12:39:09.204Z,19.28
2018-07-26T12:41:40.394Z,18.26
2018-07-26T12:44:11.476Z,19.09
2018-07-26T12:46:42.465Z,18.89
2018-07-26T12:49:13.465Z,18.97
2018-07-26T12:51:44.505Z,18.57
2018-07-26T12:54:15.506Z,18.19
2018-07-26T12:56:46.460Z,18.05
2018-07-26T12:59:17.496Z,18.00
2018-07-26T13:01:48.565Z,18.74
2018-07-26T13:04:19.511Z,19.23
2018-07-26T13:06:50.510Z,20.07
2018-07-26T13:09:21.480Z,19.65
2018-07-26T13:11:52.497Z,18.60
2018-07-26T13:14:23.469Z,19.19
2018-07-26T13:16:54.449Z,19.41
2018-07-26T13:19:25.510Z,19.75
2018-07-26T13:21:56.486Z,19.32
2018-07-26T13:24:27.817Z,18.94
2018-07-26T13:26:58.284Z,19.66
2018-07-26T13:29:29.397Z,20.57
2018-07-26T13:32:00.546Z,20.60
2018-07-26T13:34:31.484Z,19.75
2018-07-26T13:37:02.458Z,18.64
2018-07-26T13:39:33.496Z,20.38
2018-07-26T13:42:04.502Z,21.28
2018-07-26T13:44:35.482Z,22.40
2018-07-26T13:47:06.630Z,22.28
2018-07-26T13:49:37.504Z,21.88
2018-07-26T13:52:09.202Z,22.10
2018-07-26T13:54:40.368Z,21.91
2018-07-26T13:57:11.382Z,20.83
2018-07-26T13:59:42.470Z,20.09
2018-07-26T14:02:13.497Z,21.50
2018-07-26T14:04:44.489Z,22.30
2018-07-26T14:07:15.482Z,22.12
2018-07-26T14:09:46.504Z,22.16
2018-07-26T14:12:17.492Z,22.36
2018-07-26T14:14:48.461Z,22.32
2018-07-26T14:17:19.475Z,21.97
2018-07-26T14:19:50.460Z,21.28
2018-07-26T14:22:21.491Z,21.69
2018-07-26T14:24:53.296Z,21.43
2018-07-26T14:27:24.525Z,21.13
2018-07-26T14:29:55.482Z,20.83
2018-07-26T14:32:26.500Z,20.30
2018-07-26T14:34:57.496Z,20.28
2018-07-26T14:37:28.520Z,19.67
2018-07-26T14:39:59.472Z,19.75
2018-07-26T14:42:30.506Z,20.01
2018-07-26T14:45:01.510Z,20.37
2018-07-26T14:47:33.353Z,20.11
2018-07-26T14:50:04.377Z,20.17
2018-07-26T14:52:35.365Z,21.51
2018-07-26T14:55:06.406Z,20.90
2018-07-26T14:57:37.521Z,20.66
2018-07-26T15:00:08.507Z,21.36
2018-07-26T15:02:39.553Z,21.28
2018-07-26T15:05:10.546Z,21.37
2018-07-26T15:07:41.517Z,20.67
2018-07-26T15:10:12.487Z,21.13
2018-07-26T15:12:43.562Z,21.28
2018-07-26T15:15:14.472Z,20.96
2018-07-26T15:17:45.485Z,20.99
2018-07-26T15:20:16.508Z,21.16
2018-07-26T15:22:47.566Z,21.04
2018-07-26T15:25:23.696Z,21.42
2018-07-26T15:27:56.300Z,21.41
2018-07-26T15:30:27.386Z,20.72
2018-07-26T15:32:58.532Z,20.55
2018-07-26T15:35:29.474Z,20.39
2018-07-26T15:38:00.810Z,20.88
2018-07-26T15:40:31.239Z,21.31
2018-07-26T15:43:02.361Z,21.64
2018-07-26T15:45:33.360Z,22.32
2018-07-26T15:48:04.882Z,21.61
2018-07-26T15:50:36.249Z,21.43
2018-07-26T15:53:07.410Z,20.80
2018-07-26T15:55:38.589Z,20.26
2018-07-26T15:58:09.526Z,21.19
2018-07-26T16:00:40.506Z,21.11
2018-07-26T16:03:11.513Z,23.09
2018-07-26T16:05:42.508Z,23.36
2018-07-26T16:08:13.678Z,23.81
2018-07-26T16:10:44.578Z,24.36
2018-07-26T16:13:15.497Z,26.03
2018-07-26T16:15:46.501Z,24.67
2018-07-26T16:18:17.510Z,23.29
2018-07-26T16:20:48.523Z,23.40
2018-07-26T16:23:19.526Z,23.56
2018-07-26T16:25:50.488Z,23.10
2018-07-26T16:28:21.468Z,23.38
2018-07-26T16:30:52.492Z,22.99
2018-07-26T16:33:23.451Z,22.80
2018-07-26T16:35:54.509Z,22.59
2018-07-26T16:38:25.474Z,24.22
2018-07-26T16:40:56.489Z,24.81
2018-07-26T16:43:27.485Z,23.98
2018-07-26T16:45:58.506Z,24.64
2018-07-26T16:48:29.485Z,24.49
2018-07-26T16:51:00.542Z,24.32
2018-07-26T16:53:31.497Z,24.19
2018-07-26T16:56:02.508Z,24.22
2018-07-26T16:58:33.656Z,24.18
2018-07-26T17:01:04.553Z,24.47
2018-07-26T17:03:35.499Z,24.33
2018-07-26T17:06:06.688Z,24.05
2018-07-26T17:08:37.690Z,24.10
2018-07-26T17:11:09.337Z,24.70
2018-07-26T17:13:40.370Z,23.86
2018-07-26T17:16:11.387Z,23.75
2018-07-26T17:18:42.502Z,23.93
2018-07-26T17:21:13.501Z,23.22
2018-07-26T17:23:44.510Z,23.54
2018-07-26T17:26:15.518Z,23.35
2018-07-26T17:28:46.501Z,23.41
2018-07-26T17:31:17.523Z,23.61
2018-07-26T17:33:48.492Z,23.54
2018-07-26T17:36:19.554Z,24.07
2018-07-26T17:38:50.545Z,23.80
2018-07-26T17:41:21.525Z,23.64
2018-07-26T17:43:52.598Z,23.45
2018-07-26T17:46:23.505Z,23.85
2018-07-26T17:48:54.534Z,23.93
2018-07-26T17:51:25.516Z,23.96
2018-07-26T17:53:56.484Z,24.59
2018-07-26T17:56:27.484Z,24.72
2018-07-26T17:58:58.497Z,24.39
2018-07-26T18:01:29.501Z,24.35
2018-07-26T18:04:00.477Z,24.29
2018-07-26T18:06:31.486Z,24.52
2018-07-26T18:09:02.632Z,24.20
2018-07-26T18:11:33.549Z,24.80
2018-07-26T18:14:04.513Z,24.61
2018-07-26T18:16:35.502Z,25.31
2018-07-26T18:19:06.618Z,24.71
2018-07-26T18:21:37.521Z,24.67
2018-07-26T18:24:08.694Z,24.72
2018-07-26T18:26:39.517Z,25.00
2018-07-26T18:29:10.521Z,25.42
2018-07-26T18:31:41.668Z,25.78
2018-07-26T18:34:12.481Z,26.12
2018-07-26T18:36:43.586Z,26.13
2018-07-26T18:39:14.531Z,26.32
2018-07-26T18:41:45.518Z,26.49
2018-07-26T18:44:16.494Z,26.13
2018-07-26T18:46:47.506Z,26.76
2018-07-26T18:49:18.496Z,26.99
2018-07-26T18:51:49.493Z,26.43
2018-07-26T18:54:20.481Z,26.91
2018-07-26T18:56:51.505Z,26.63
2018-07-26T18:59:22.487Z,26.71
2018-07-26T19:01:53.539Z,27.19
2018-07-26T19:04:24.609Z,27.57
2018-07-26T19:06:55.501Z,26.99
2018-07-26T19:09:26.522Z,27.25
2018-07-26T19:11:57.578Z,27.89
2018-07-26T19:14:28.554Z,27.40
2018-07-26T19:16:59.515Z,27.70
2018-07-26T19:19:30.504Z,27.34
2018-07-26T19:22:01.459Z,28.71
2018-07-26T19:24:32.456Z,27.93
2018-07-26T19:27:03.812Z,27.42
2018-07-26T19:29:34.665Z,28.06
2018-07-26T19:32:05.566Z,27.72
2018-07-26T19:34:36.497Z,28.18
2018-07-26T19:37:07.481Z,27.71
2018-07-26T19:39:38.498Z,27.99
2018-07-26T19:42:09.546Z,28.30
2018-07-26T19:44:40.479Z,28.23
2018-07-26T19:47:11.501Z,28.19
2018-07-26T19:49:42.565Z,27.39
2018-07-26T19:52:13.574Z,27.53
2018-07-26T19:54:44.548Z,27.97
2018-07-26T19:57:15.534Z,27.83
2018-07-26T19:59:46.500Z,28.24
2018-07-26T20:02:17.500Z,28.32
2018-07-26T20:04:48.513Z,28.59
2018-07-26T20:07:19.563Z,27.99
2018-07-26T20:09:51.216Z,27.94
2018-07-26T20:12:22.566Z,28.25
2018-07-26T20:14:53.504Z,28.19
2018-07-26T20:17:24.516Z,29.22
2018-07-26T20:19:55.514Z,28.47
2018-07-26T20:22:27.436Z,29.39
2018-07-26T20:24:58.455Z,28.74
2018-07-26T20:27:29.521Z,28.64
2018-07-26T20:30:00.471Z,28.59
2018-07-26T20:32:31.468Z,28.58
2018-07-26T20:35:02.475Z,28.75
2018-07-26T20:37:33.505Z,28.81
2018-07-26T20:40:04.517Z,29.42
2018-07-26T20:42:35.501Z,28.72
2018-07-26T20:45:09.790Z,29.19
2018-07-26T20:47:40.699Z,28.50
2018-07-26T20:50:11.597Z,29.41
2018-07-26T20:52:42.493Z,28.92
2018-07-26T20:55:13.494Z,29.09
2018-07-26T20:57:44.483Z,29.23
2018-07-26T21:00:15.472Z,29.23
2018-07-26T21:02:46.501Z,28.70
2018-07-26T21:05:17.542Z,28.84
2018-07-26T21:07:48.477Z,29.36
2018-07-26T21:10:19.461Z,28.62
2018-07-26T21:12:50.536Z,28.35
2018-07-26T21:15:21.465Z,28.92
2018-07-26T21:17:52.470Z,29.11
2018-07-26T21:20:23.522Z,29.32
2018-07-26T21:22:54.496Z,28.83
2018-07-26T21:25:25.486Z,29.07
2018-07-26T21:27:56.495Z,28.96
2018-07-26T21:30:27.483Z,29.11
2018-07-26T21:32:58.522Z,29.43
2018-07-26T21:35:29.528Z,29.00
2018-07-26T21:38:00.546Z,29.01
2018-07-26T21:40:31.465Z,28.56
2018-07-26T21:43:02.493Z,28.21
2018-07-26T21:45:33.499Z,28.83
2018-07-26T21:48:04.483Z,29.01
2018-07-26T21:50:35.465Z,28.84
2018-07-26T21:53:07.359Z,29.39
2018-07-26T21:55:38.395Z,30.00
2018-07-26T21:58:09.454Z,28.86
2018-07-26T22:00:45.736Z,29.57
2018-07-26T22:03:16.579Z,29.65
2018-07-26T22:05:47.525Z,30.36
2018-07-26T22:08:18.467Z,30.43
2018-07-26T22:10:50.293Z,30.20
2018-07-26T22:13:22.295Z,30.58
2018-07-26T22:15:53.588Z,30.51
2018-07-26T22:18:24.588Z,30.23
2018-07-26T22:20:55.523Z,30.54
2018-07-26T22:23:26.496Z,31.10
2018-07-26T22:25:57.464Z,31.23
2018-07-26T22:28:28.500Z,32.00
2018-07-26T22:30:59.445Z,31.42
2018-07-26T22:33:30.490Z,32.07
2018-07-26T22:36:01.497Z,32.26
2018-07-26T22:38:32.899Z,32.04
2018-07-26T22:41:03.705Z,32.42
2018-07-26T22:43:34.611Z,31.95
2018-07-26T22:46:05.530Z,32.38
2018-07-26T22:48:36.489Z,31.91
2018-07-26T22:51:07.498Z,32.20
2018-07-26T22:53:38.478Z,31.65
2018-07-26T22:56:09.462Z,31.54
2018-07-26T22:58:40.453Z,31.42
2018-07-26T23:01:11.446Z,32.11
2018-07-26T23:03:42.473Z,32.04
2018-07-26T23:06:13.470Z,32.04
2018-07-26T23:08:44.541Z,31.74
2018-07-26T23:11:15.502Z,31.85
2018-07-26T23:13:46.589Z,31.68
2018-07-26T23:16:17.491Z,32.26
2018-07-26T23:18:48.504Z,31.84
2018-07-26T23:21:19.476Z,31.80
2018-07-26T23:23:50.533Z,31.90
2018-07-26T23:26:21.466Z,31.96
2018-07-26T23:28:52.560Z,31.47
2018-07-26T23:31:23.457Z,32.12
2018-07-26T23:33:54.486Z,32.10
2018-07-26T23:36:25.492Z,32.07
2018-07-26T23:38:56.499Z,32.69
2018-07-26T23:41:27.736Z,32.79
2018-07-26T23:43:58.573Z,32.34
2018-07-26T23:46:29.472Z,32.89
2018-07-26T23:49:00.507Z,32.10
2018-07-26T23:51:31.637Z,32.18
2018-07-26T23:54:02.507Z,32.43
2018-07-26T23:56:33.565Z,32.33
2018-07-26T23:59:11.631Z,32.47
